Time;durP1;ratioP1;P1;durP2;ratioP2;P2;SDS_P1;SDS_P2;PMS_P1;PMS_P2;Temp;Humidity;BMP_temperature;BMP_pressure;BME280_temperature;BME280_humidity;BME280_pressure;Samples;Min_cycle;Max_cycle;Signal;HPM_P1;HPM_P2
2021/05/22 00:01:15;;;;;;;5.50;3.70;;;;;;;;;;5114890;28;20020;-67
2021/05/22 00:03:41;;;;;;;7.70;3.17;;;;;;;;;;5096707;28;20027;-68
2021/05/22 00:06:07;;;;;;;9.85;4.28;;;;;;;;;;5114905;28;20502;-66
2021/05/22 00:08:33;;;;;;;11.10;3.83;;;;;;;;;;5114781;28;20056;-67
2021/05/22 00:10:59;;;;;;;9.30;3.78;;;;;;;;;;5114823;28;20038;-66
2021/05/22 00:13:25;;;;;;;14.40;3.80;;;;;;;;;;5114955;28;20038;-68
2021/05/22 00:15:52;;;;;;;12.00;3.63;;;;;;;;;;5114595;28;20080;-68
2021/05/22 00:18:18;;;;;;;5.80;3.45;;;;;;;;;;5114731;28;20438;-67
2021/05/22 00:20:44;;;;;;;9.45;3.40;;;;;;;;;;5114741;28;20023;-68
2021/05/22 00:23:11;;;;;;;8.93;4.20;;;;;;;;;;5114601;28;20031;-67
2021/05/22 00:25:37;;;;;;;7.88;3.60;;;;;;;;;;5114464;28;20027;-67
2021/05/22 00:28:03;;;;;;;9.20;4.05;;;;;;;;;;5114502;28;20100;-68
2021/05/22 00:30:30;;;;;;;6.88;3.58;;;;;;;;;;5105865;28;20439;-67
2021/05/22 00:32:56;;;;;;;10.60;4.03;;;;;;;;;;5094014;28;20031;-68
2021/05/22 00:35:22;;;;;;;11.63;3.53;;;;;;;;;;5093980;28;20483;-67
2021/05/22 00:37:48;;;;;;;9.63;3.22;;;;;;;;;;5094231;28;20055;-67
2021/05/22 00:40:14;;;;;;;7.53;3.05;;;;;;;;;;5093923;28;20538;-68
2021/05/22 00:42:41;;;;;;;8.32;3.45;;;;;;;;;;5093935;28;20032;-67
2021/05/22 00:45:09;;;;;;;12.23;4.47;;;;;;;;;;5093745;28;20478;-68
2021/05/22 00:47:36;;;;;;;13.18;3.47;;;;;;;;;;5093952;28;20111;-67
2021/05/22 00:50:03;;;;;;;9.77;3.55;;;;;;;;;;5093996;28;20352;-67
2021/05/22 00:52:29;;;;;;;10.23;3.55;;;;;;;;;;5111536;28;20076;-68
2021/05/22 00:54:55;;;;;;;6.53;3.28;;;;;;;;;;5111719;28;20024;-68
2021/05/22 00:57:21;;;;;;;9.43;3.55;;;;;;;;;;5113783;28;20092;-67
2021/05/22 00:59:48;;;;;;;9.48;2.97;;;;;;;;;;5113785;28;20028;-67
2021/05/22 01:02:20;;;;;;;9.88;3.28;;;;;;;;;;5113877;28;20016;-67
2021/05/22 01:04:46;;;;;;;7.30;3.75;;;;;;;;;;5113824;28;20051;-68
2021/05/22 01:07:12;;;;;;;9.18;3.33;;;;;;;;;;5113577;28;20073;-67
2021/05/22 01:09:40;;;;;;;11.57;3.42;;;;;;;;;;5114038;28;20043;-67
2021/05/22 01:12:06;;;;;;;10.93;4.10;;;;;;;;;;5113778;28;20034;-67
2021/05/22 01:14:44;;;;;;;8.23;2.88;;;;;;;;;;5113432;28;20583;-66
2021/05/22 01:17:11;;;;;;;5.68;3.17;;;;;;;;;;5113641;28;20024;-67
2021/05/22 01:19:37;;;;;;;7.95;3.17;;;;;;;;;;5113402;28;20108;-67
2021/05/22 01:22:03;;;;;;;4.55;2.85;;;;;;;;;;5113423;28;20028;-66
2021/05/22 01:24:31;;;;;;;12.85;3.60;;;;;;;;;;5113265;28;20023;-66
2021/05/22 01:26:57;;;;;;;5.15;2.90;;;;;;;;;;5113268;28;20107;-67
2021/05/22 01:29:23;;;;;;;8.38;2.90;;;;;;;;;;5113231;28;20057;-67
2021/05/22 01:31:49;;;;;;;4.72;2.75;;;;;;;;;;5113322;28;20023;-66
2021/05/22 01:34:15;;;;;;;9.60;3.03;;;;;;;;;;5113397;28;20432;-67
2021/05/22 01:36:42;;;;;;;6.05;2.90;;;;;;;;;;5113469;28;20102;-67
2021/05/22 01:39:08;;;;;;;5.32;2.58;;;;;;;;;;5113146;28;20028;-66
2021/05/22 01:41:34;;;;;;;5.65;2.72;;;;;;;;;;5113143;28;20462;-67
2021/05/22 01:44:02;;;;;;;13.73;3.17;;;;;;;;;;5113347;28;20027;-67
2021/05/22 01:46:29;;;;;;;8.73;2.75;;;;;;;;;;5112973;28;20071;-67
2021/05/22 01:48:56;;;;;;;7.18;3.38;;;;;;;;;;5113291;28;20444;-67
2021/05/22 01:51:24;;;;;;;5.75;2.88;;;;;;;;;;5113380;28;20064;-67
2021/05/22 01:53:51;;;;;;;7.15;4.10;;;;;;;;;;5113238;28;20027;-66
2021/05/22 01:56:19;;;;;;;8.18;2.95;;;;;;;;;;5112831;28;20016;-66
2021/05/22 01:58:46;;;;;;;9.38;3.45;;;;;;;;;;5112918;28;20032;-66
2021/05/22 02:01:12;;;;;;;9.23;4.15;;;;;;;;;;5113144;28;20026;-68
2021/05/22 02:03:40;;;;;;;11.43;3.08;;;;;;;;;;5112928;28;20108;-66
2021/05/22 02:06:08;;;;;;;13.70;4.75;;;;;;;;;;5112174;28;20087;-67
2021/05/22 02:08:38;;;;;;;5.82;2.92;;;;;;;;;;5112789;28;20043;-67
2021/05/22 02:11:04;;;;;;;10.32;4.28;;;;;;;;;;5112643;28;20019;-67
2021/05/22 02:13:30;;;;;;;8.38;2.63;;;;;;;;;;5112663;28;20087;-66
2021/05/22 02:16:00;;;;;;;14.13;2.97;;;;;;;;;;5113118;28;20024;-66
2021/05/22 02:18:31;;;;;;;5.18;2.65;;;;;;;;;;5112736;28;20035;-67
2021/05/22 02:20:58;;;;;;;6.65;3.00;;;;;;;;;;5111969;28;20034;-68
2021/05/22 02:23:25;;;;;;;6.43;3.58;;;;;;;;;;5133119;28;20066;-67
2021/05/22 02:25:55;;;;;;;7.43;3.50;;;;;;;;;;5112664;28;20051;-66
2021/05/22 02:28:21;;;;;;;8.82;2.90;;;;;;;;;;5112559;28;20490;-66
2021/05/22 02:30:48;;;;;;;6.70;2.97;;;;;;;;;;5112542;28;20405;-65
2021/05/22 02:33:15;;;;;;;6.93;2.35;;;;;;;;;;5112776;28;20020;-67
2021/05/22 02:35:42;;;;;;;7.90;3.42;;;;;;;;;;5112136;28;20016;-67
2021/05/22 02:38:10;;;;;;;7.63;3.97;;;;;;;;;;5112577;28;20072;-66
2021/05/22 02:40:38;;;;;;;8.27;2.63;;;;;;;;;;5112688;28;20050;-67
2021/05/22 02:43:06;;;;;;;5.20;2.75;;;;;;;;;;5112450;28;20123;-66
2021/05/22 02:45:33;;;;;;;7.72;3.10;;;;;;;;;;5112483;28;20024;-67
2021/05/22 02:48:01;;;;;;;6.18;2.83;;;;;;;;;;5112507;28;20030;-66
2021/05/22 02:50:28;;;;;;;5.00;3.03;;;;;;;;;;5112290;28;20100;-67
2021/05/22 02:52:55;;;;;;;6.72;2.90;;;;;;;;;;5112357;28;20028;-66
2021/05/22 02:55:21;;;;;;;5.30;2.60;;;;;;;;;;5112461;28;20096;-66
2021/05/22 02:57:48;;;;;;;8.88;3.20;;;;;;;;;;5112360;28;20027;-67
2021/05/22 03:00:14;;;;;;;8.77;2.75;;;;;;;;;;5112238;28;20087;-67
2021/05/22 03:02:41;;;;;;;10.00;2.92;;;;;;;;;;5112310;28;20027;-67
2021/05/22 03:05:08;;;;;;;5.70;3.03;;;;;;;;;;5111971;28;20059;-67
2021/05/22 03:07:34;;;;;;;6.68;3.10;;;;;;;;;;5112109;28;20028;-67
2021/05/22 03:10:01;;;;;;;13.80;3.40;;;;;;;;;;5112250;28;20550;-67
2021/05/22 03:12:31;;;;;;;5.65;2.70;;;;;;;;;;5112294;28;20032;-68
2021/05/22 03:14:57;;;;;;;6.68;2.78;;;;;;;;;;5112167;28;20023;-66
2021/05/22 03:17:23;;;;;;;10.02;4.47;;;;;;;;;;5114295;28;20506;-66
2021/05/22 03:19:50;;;;;;;5.68;2.85;;;;;;;;;;5097573;28;20034;-66
2021/05/22 03:22:16;;;;;;;9.75;3.35;;;;;;;;;;5116072;28;20039;-67
2021/05/22 03:24:42;;;;;;;3.35;2.88;;;;;;;;;;5115628;28;20024;-66
2021/05/22 03:27:08;;;;;;;5.32;2.20;;;;;;;;;;5115789;28;20031;-66
2021/05/22 03:29:35;;;;;;;5.07;2.50;;;;;;;;;;5115932;28;20024;-66
2021/05/22 03:32:01;;;;;;;3.30;2.55;;;;;;;;;;5115602;28;20016;-68
2021/05/22 03:34:27;;;;;;;7.00;2.70;;;;;;;;;;5115443;28;20020;-65
2021/05/22 03:36:53;;;;;;;8.82;2.65;;;;;;;;;;5115583;28;20519;-67
2021/05/22 03:39:19;;;;;;;4.40;2.30;;;;;;;;;;5115411;28;20023;-67
2021/05/22 03:41:45;;;;;;;6.88;2.90;;;;;;;;;;5097117;28;20030;-67
2021/05/22 03:44:11;;;;;;;4.68;2.45;;;;;;;;;;5097142;28;20478;-66
2021/05/22 03:46:37;;;;;;;6.25;2.85;;;;;;;;;;5115269;28;20034;-66
2021/05/22 03:49:04;;;;;;;6.70;2.58;;;;;;;;;;5115141;28;20042;-66
2021/05/22 03:51:30;;;;;;;4.47;2.47;;;;;;;;;;5115299;28;20068;-66
2021/05/22 03:53:57;;;;;;;7.70;2.78;;;;;;;;;;5115231;28;20032;-66
2021/05/22 03:56:23;;;;;;;6.45;2.47;;;;;;;;;;5106175;28;20049;-67
2021/05/22 03:58:50;;;;;;;5.95;2.50;;;;;;;;;;5099826;28;20031;-66
2021/05/22 04:01:16;;;;;;;7.05;2.70;;;;;;;;;;5115168;28;20020;-67
2021/05/22 04:03:42;;;;;;;5.03;2.53;;;;;;;;;;5115161;28;20355;-66
2021/05/22 04:06:08;;;;;;;10.75;3.20;;;;;;;;;;5114689;28;20140;-68
2021/05/22 04:08:34;;;;;;;5.95;2.72;;;;;;;;;;5112449;28;20027;-67
2021/05/22 04:11:00;;;;;;;5.68;2.80;;;;;;;;;;5094534;28;20028;-67
2021/05/22 04:13:26;;;;;;;8.82;2.72;;;;;;;;;;5094528;28;20394;-66
2021/05/22 04:15:53;;;;;;;6.72;2.70;;;;;;;;;;5094747;28;20393;-66
2021/05/22 04:18:19;;;;;;;9.23;2.88;;;;;;;;;;5094485;28;20091;-66
2021/05/22 04:20:45;;;;;;;6.32;2.67;;;;;;;;;;5094298;28;20038;-66
2021/05/22 04:23:11;;;;;;;7.70;3.53;;;;;;;;;;5097344;28;20482;-67
2021/05/22 04:25:37;;;;;;;9.27;4.15;;;;;;;;;;5114609;28;20431;-66
2021/05/22 04:28:04;;;;;;;5.10;2.95;;;;;;;;;;5114283;28;20496;-66
2021/05/22 04:30:30;;;;;;;5.32;2.60;;;;;;;;;;5114459;28;20107;-65
2021/05/22 04:32:56;;;;;;;5.22;2.70;;;;;;;;;;5114439;28;20027;-66
2021/05/22 04:35:22;;;;;;;6.72;2.63;;;;;;;;;;5114292;28;20107;-66
2021/05/22 04:37:48;;;;;;;6.50;2.50;;;;;;;;;;5114364;28;20478;-66
2021/05/22 04:40:15;;;;;;;5.68;2.95;;;;;;;;;;5114368;28;20051;-65
2021/05/22 04:42:41;;;;;;;7.85;3.10;;;;;;;;;;5114250;28;20068;-66
2021/05/22 04:45:07;;;;;;;5.45;2.58;;;;;;;;;;5114176;28;20032;-66
2021/05/22 04:47:34;;;;;;;5.82;2.70;;;;;;;;;;5113913;28;20028;-65
2021/05/22 04:50:00;;;;;;;8.35;2.75;;;;;;;;;;5114182;28;20497;-66
2021/05/22 04:52:26;;;;;;;8.68;2.92;;;;;;;;;;5114056;28;20031;-66
2021/05/22 04:54:53;;;;;;;7.13;2.45;;;;;;;;;;5114023;28;20084;-67
2021/05/22 04:57:19;;;;;;;6.65;3.30;;;;;;;;;;5114001;28;20091;-66
2021/05/22 04:59:45;;;;;;;7.35;2.50;;;;;;;;;;5113977;28;20478;-66
2021/05/22 05:02:11;;;;;;;5.68;2.42;;;;;;;;;;5113767;28;20484;-66
2021/05/22 05:04:37;;;;;;;7.30;3.63;;;;;;;;;;5113680;28;20068;-66
2021/05/22 05:07:04;;;;;;;4.30;2.70;;;;;;;;;;5113681;28;20019;-65
2021/05/22 05:09:34;;;;;;;8.50;2.80;;;;;;;;;;5113713;28;20024;-66
2021/05/22 05:12:03;;;;;;;4.25;2.80;;;;;;;;;;5113755;28;20016;-65
2021/05/22 05:14:30;;;;;;;6.60;2.55;;;;;;;;;;5113696;28;20023;-66
2021/05/22 05:16:56;;;;;;;7.50;2.85;;;;;;;;;;5113433;28;20145;-66
2021/05/22 05:19:28;;;;;;;7.30;3.17;;;;;;;;;;5113532;28;20441;-67
2021/05/22 05:21:55;;;;;;;7.70;3.38;;;;;;;;;;5113601;28;20467;-66
2021/05/22 05:24:21;;;;;;;8.57;3.22;;;;;;;;;;5113325;28;20026;-65
2021/05/22 05:26:47;;;;;;;6.95;2.58;;;;;;;;;;5113352;28;20031;-66
2021/05/22 05:29:13;;;;;;;5.38;2.55;;;;;;;;;;5113561;28;20126;-66
2021/05/22 05:31:39;;;;;;;6.15;2.55;;;;;;;;;;5113258;28;20016;-67
2021/05/22 05:34:05;;;;;;;7.45;3.80;;;;;;;;;;5113325;28;20626;-67
2021/05/22 05:36:32;;;;;;;5.95;2.58;;;;;;;;;;5113419;28;20031;-67
2021/05/22 05:38:58;;;;;;;7.38;2.70;;;;;;;;;;5113021;28;20382;-66
2021/05/22 05:41:24;;;;;;;5.25;2.60;;;;;;;;;;5113132;28;20031;-67
2021/05/22 05:43:50;;;;;;;7.55;2.38;;;;;;;;;;5094755;28;20441;-66
2021/05/22 05:46:16;;;;;;;7.63;2.45;;;;;;;;;;5113155;28;20031;-66
2021/05/22 05:48:42;;;;;;;4.30;2.67;;;;;;;;;;5113000;28;20111;-67
2021/05/22 05:51:08;;;;;;;7.57;2.85;;;;;;;;;;5113055;28;20019;-67
2021/05/22 05:53:35;;;;;;;8.32;2.78;;;;;;;;;;5113279;28;20428;-65
2021/05/22 05:56:01;;;;;;;8.55;2.75;;;;;;;;;;5113256;28;20047;-67
2021/05/22 05:58:27;;;;;;;8.15;2.80;;;;;;;;;;5112812;28;20496;-66
2021/05/22 06:00:54;;;;;;;6.13;2.50;;;;;;;;;;5112913;28;20054;-66
2021/05/22 06:03:27;;;;;;;5.53;2.17;;;;;;;;;;5112937;28;20099;-66
2021/05/22 06:05:53;;;;;;;10.40;4.05;;;;;;;;;;5112730;28;20096;-67
2021/05/22 06:08:20;;;;;;;7.22;2.85;;;;;;;;;;5112741;28;20038;-66
2021/05/22 06:10:48;;;;;;;9.32;2.65;;;;;;;;;;5112790;28;20030;-66
2021/05/22 06:13:27;;;;;;;4.88;2.20;;;;;;;;;;5112948;28;20024;-67
2021/05/22 06:18:38;;;;;;;5.97;2.50;;;;;;;;;;5112810;28;20020;-67
2021/05/22 06:21:05;;;;;;;6.15;2.40;;;;;;;;;;5112790;28;20081;-67
2021/05/22 06:23:32;;;;;;;5.40;2.30;;;;;;;;;;5112639;28;20121;-68
2021/05/22 06:25:58;;;;;;;5.85;2.22;;;;;;;;;;5112902;28;20024;-66
2021/05/22 06:28:25;;;;;;;4.10;2.30;;;;;;;;;;5112664;28;20063;-66
2021/05/22 06:30:51;;;;;;;5.07;2.20;;;;;;;;;;5112626;28;20016;-66
2021/05/22 06:33:17;;;;;;;5.47;2.35;;;;;;;;;;5112854;28;20030;-67
2021/05/22 06:35:43;;;;;;;4.40;2.33;;;;;;;;;;5112562;28;20020;-66
2021/05/22 06:38:10;;;;;;;4.88;2.10;;;;;;;;;;5112851;28;20031;-66
2021/05/22 06:40:36;;;;;;;9.88;3.45;;;;;;;;;;5112486;28;20157;-65
2021/05/22 06:43:03;;;;;;;7.05;2.10;;;;;;;;;;5112369;28;20064;-66
2021/05/22 06:45:38;;;;;;;6.30;2.17;;;;;;;;;;5112567;28;20023;-66
2021/05/22 06:48:06;;;;;;;2.22;1.80;;;;;;;;;;5112686;28;20103;-66
2021/05/22 06:50:32;;;;;;;6.45;2.70;;;;;;;;;;5112479;28;20024;-67
2021/05/22 06:52:59;;;;;;;8.10;2.88;;;;;;;;;;5115682;28;20019;-67
2021/05/22 06:55:25;;;;;;;5.85;2.47;;;;;;;;;;5116380;28;20016;-66
2021/05/22 06:57:51;;;;;;;3.75;2.75;;;;;;;;;;5116150;28;20051;-67
2021/05/22 07:00:17;;;;;;;4.20;2.28;;;;;;;;;;5116290;28;20034;-67
2021/05/22 07:02:43;;;;;;;5.60;2.30;;;;;;;;;;5109348;28;20024;-64
2021/05/22 07:05:10;;;;;;;6.35;3.53;;;;;;;;;;5095770;28;20418;-67
2021/05/22 07:07:38;;;;;;;6.18;2.63;;;;;;;;;;5106281;28;20031;-67
2021/05/22 07:10:04;;;;;;;4.00;2.00;;;;;;;;;;5116021;28;20011;-67
2021/05/22 07:12:30;;;;;;;4.60;2.50;;;;;;;;;;5115901;28;20019;-66
2021/05/22 07:14:57;;;;;;;6.70;2.30;;;;;;;;;;5116227;28;20028;-67
2021/05/22 07:17:23;;;;;;;6.72;2.45;;;;;;;;;;5115988;28;20103;-67
2021/05/22 07:19:49;;;;;;;6.40;2.42;;;;;;;;;;5115779;28;20019;-67
2021/05/22 07:22:15;;;;;;;5.22;2.25;;;;;;;;;;5115695;28;20485;-65
2021/05/22 07:24:41;;;;;;;5.55;2.00;;;;;;;;;;5115951;28;20035;-67
2021/05/22 07:27:07;;;;;;;3.78;2.10;;;;;;;;;;5115819;28;20378;-65
2021/05/22 07:29:33;;;;;;;3.83;2.70;;;;;;;;;;5115747;28;20020;-66
2021/05/22 07:31:59;;;;;;;4.25;1.98;;;;;;;;;;5115607;28;20482;-67
2021/05/22 07:34:25;;;;;;;5.78;2.20;;;;;;;;;;5115618;28;20102;-66
2021/05/22 07:36:52;;;;;;;6.70;3.22;;;;;;;;;;5097267;28;20648;-65
2021/05/22 07:39:18;;;;;;;5.07;2.38;;;;;;;;;;5115495;28;20020;-66
2021/05/22 07:41:45;;;;;;;2.97;2.10;;;;;;;;;;5115356;28;20016;-67
2021/05/22 07:44:11;;;;;;;7.00;2.08;;;;;;;;;;5115402;28;20058;-67
2021/05/22 07:46:37;;;;;;;4.35;2.10;;;;;;;;;;5115135;28;20023;-66
2021/05/22 07:49:03;;;;;;;6.90;2.20;;;;;;;;;;5115154;28;20024;-67
2021/05/22 07:51:29;;;;;;;6.43;2.00;;;;;;;;;;5115126;28;20054;-65
2021/05/22 07:53:55;;;;;;;3.95;2.45;;;;;;;;;;5115233;28;20553;-65
2021/05/22 07:56:22;;;;;;;5.38;2.47;;;;;;;;;;5115081;28;20032;-66
2021/05/22 07:58:48;;;;;;;6.03;2.10;;;;;;;;;;5115239;28;20060;-66
2021/05/22 08:01:14;;;;;;;4.32;2.08;;;;;;;;;;5115080;28;20059;-66
2021/05/22 08:03:40;;;;;;;7.25;2.10;;;;;;;;;;5114459;28;20466;-67
2021/05/22 08:06:06;;;;;;;5.45;1.95;;;;;;;;;;5114914;28;20060;-66
2021/05/22 08:08:32;;;;;;;3.83;2.00;;;;;;;;;;5114836;28;20110;-67
2021/05/22 08:10:58;;;;;;;3.75;2.20;;;;;;;;;;5115008;28;20022;-67
2021/05/22 08:13:28;;;;;;;3.42;2.13;;;;;;;;;;5114891;28;20020;-66
2021/05/22 08:15:55;;;;;;;6.28;2.10;;;;;;;;;;5115116;28;20554;-67
2021/05/22 08:18:21;;;;;;;4.28;1.90;;;;;;;;;;5114754;28;20028;-67
2021/05/22 08:20:47;;;;;;;6.45;2.20;;;;;;;;;;5114744;28;20033;-66
2021/05/22 08:23:13;;;;;;;2.50;2.00;;;;;;;;;;5114349;28;20023;-67
2021/05/22 08:25:40;;;;;;;5.53;2.17;;;;;;;;;;5113221;28;20027;-65
2021/05/22 08:28:07;;;;;;;4.28;2.30;;;;;;;;;;5114446;28;20035;-66
2021/05/22 08:30:33;;;;;;;5.10;2.40;;;;;;;;;;5114625;28;20019;-66
2021/05/22 08:33:01;;;;;;;8.55;2.40;;;;;;;;;;5114498;28;20027;-65
2021/05/22 08:35:29;;;;;;;5.45;2.00;;;;;;;;;;5114665;28;20099;-66
2021/05/22 08:37:55;;;;;;;3.53;2.28;;;;;;;;;;5114533;28;20031;-66
2021/05/22 08:40:25;;;;;;;5.38;1.80;;;;;;;;;;5114573;28;20497;-67
2021/05/22 08:42:52;;;;;;;4.38;2.35;;;;;;;;;;5114562;28;20032;-66
2021/05/22 08:45:20;;;;;;;3.20;1.65;;;;;;;;;;5114236;28;20381;-67
2021/05/22 08:47:48;;;;;;;4.03;2.05;;;;;;;;;;5114104;28;20168;-67
2021/05/22 08:50:14;;;;;;;3.53;1.80;;;;;;;;;;5114123;28;20028;-66
2021/05/22 08:52:41;;;;;;;3.05;2.10;;;;;;;;;;5114208;28;20020;-66
2021/05/22 08:55:07;;;;;;;2.80;2.15;;;;;;;;;;5114310;28;20023;-66
2021/05/22 08:57:33;;;;;;;3.10;1.63;;;;;;;;;;5113986;28;20027;-66
2021/05/22 09:00:00;;;;;;;4.75;1.80;;;;;;;;;;5113999;28;20107;-65
2021/05/22 09:02:27;;;;;;;4.22;1.95;;;;;;;;;;5114382;28;20114;-66
2021/05/22 09:05:12;;;;;;;4.57;1.75;;;;;;;;;;5113754;28;20090;-66
2021/05/22 09:07:42;;;;;;;3.35;2.08;;;;;;;;;;5113556;28;20108;-66
2021/05/22 09:10:14;;;;;;;2.75;1.75;;;;;;;;;;5113971;28;20047;-65
2021/05/22 09:12:42;;;;;;;2.80;1.52;;;;;;;;;;5114047;28;20027;-67
2021/05/22 09:15:13;;;;;;;3.38;1.80;;;;;;;;;;5113045;28;20094;-67
2021/05/22 09:17:45;;;;;;;2.28;1.73;;;;;;;;;;5113630;28;20031;-67
2021/05/22 09:20:12;;;;;;;2.97;1.60;;;;;;;;;;5113599;28;20024;-67
2021/05/22 09:22:38;;;;;;;2.92;1.50;;;;;;;;;;5113703;28;20382;-66
2021/05/22 09:25:06;;;;;;;1.60;1.50;;;;;;;;;;5113407;28;20498;-67
2021/05/22 09:27:36;;;;;;;2.45;1.98;;;;;;;;;;5113633;28;20389;-66
2021/05/22 09:30:10;;;;;;;3.50;1.70;;;;;;;;;;5113479;28;20031;-66
2021/05/22 09:32:37;;;;;;;2.60;2.00;;;;;;;;;;5112728;28;20107;-67
2021/05/22 09:35:04;;;;;;;5.30;2.17;;;;;;;;;;5113204;28;20024;-66
2021/05/22 09:37:30;;;;;;;3.13;1.75;;;;;;;;;;5113084;28;20035;-66
2021/05/22 09:39:56;;;;;;;1.85;1.67;;;;;;;;;;5113261;28;20024;-67
2021/05/22 09:42:31;;;;;;;3.72;1.70;;;;;;;;;;5113229;28;20027;-67
2021/05/22 09:44:57;;;;;;;2.75;1.48;;;;;;;;;;5113251;28;20032;-66
2021/05/22 09:47:23;;;;;;;2.40;1.75;;;;;;;;;;5113082;28;20099;-66
2021/05/22 09:49:50;;;;;;;2.50;1.70;;;;;;;;;;5113091;28;20023;-67
2021/05/22 09:52:17;;;;;;;1.85;1.65;;;;;;;;;;5113129;28;20024;-66
2021/05/22 09:54:45;;;;;;;5.88;1.85;;;;;;;;;;5113092;28;20019;-66
2021/05/22 09:57:14;;;;;;;3.28;1.85;;;;;;;;;;5112962;28;20054;-66
2021/05/22 09:59:40;;;;;;;6.55;1.77;;;;;;;;;;5113257;28;20027;-66
2021/05/22 10:02:06;;;;;;;3.28;1.60;;;;;;;;;;5112884;28;20024;-67
2021/05/22 10:04:33;;;;;;;1.70;1.60;;;;;;;;;;5112861;28;20027;-66
2021/05/22 10:06:59;;;;;;;2.10;1.88;;;;;;;;;;5112577;28;20104;-66
2021/05/22 10:09:26;;;;;;;1.67;1.40;;;;;;;;;;5112793;28;20103;-67
2021/05/22 10:12:01;;;;;;;2.05;1.90;;;;;;;;;;5112793;28;20599;-66
2021/05/22 10:14:45;;;;;;;2.83;2.08;;;;;;;;;;5112764;28;20032;-66
2021/05/22 10:17:14;;;;;;;2.50;1.38;;;;;;;;;;5112740;28;20030;-67
2021/05/22 10:19:40;;;;;;;4.60;1.50;;;;;;;;;;5112581;28;20043;-66
2021/05/22 10:22:07;;;;;;;1.88;1.65;;;;;;;;;;5112969;28;20689;-66
2021/05/22 10:24:34;;;;;;;2.55;1.58;;;;;;;;;;5107831;28;20024;-67
2021/05/22 10:27:00;;;;;;;3.70;1.90;;;;;;;;;;5116135;28;20534;-67
2021/05/22 10:29:26;;;;;;;4.22;2.67;;;;;;;;;;5116969;28;20571;-67
2021/05/22 10:31:53;;;;;;;2.03;1.70;;;;;;;;;;5116979;28;20102;-66
2021/05/22 10:34:23;;;;;;;3.30;1.80;;;;;;;;;;5116638;28;20028;-66
2021/05/22 10:36:51;;;;;;;1.60;1.45;;;;;;;;;;5116801;28;20027;-66
2021/05/22 10:39:38;;;;;;;1.63;1.42;;;;;;;;;;5116649;28;20441;-67
2021/05/22 10:42:04;;;;;;;5.28;1.30;;;;;;;;;;5116905;28;20442;-67
2021/05/22 10:44:36;;;;;;;1.90;1.45;;;;;;;;;;5116583;28;20020;-67
2021/05/22 10:47:12;;;;;;;2.78;1.40;;;;;;;;;;5116615;28;20028;-66
2021/05/22 10:49:49;;;;;;;2.90;1.60;;;;;;;;;;5116283;28;20489;-67
2021/05/22 10:52:25;;;;;;;1.98;1.65;;;;;;;;;;5116731;28;20028;-67
2021/05/22 10:54:58;;;;;;;1.90;1.40;;;;;;;;;;5116484;28;20423;-66
2021/05/22 10:57:24;;;;;;;1.55;1.35;;;;;;;;;;5116342;28;20024;-66
2021/05/22 11:00:09;;;;;;;4.18;1.70;;;;;;;;;;5116559;28;20112;-67
2021/05/22 11:02:36;;;;;;;6.25;1.98;;;;;;;;;;5116591;28;20363;-67
2021/05/22 11:05:26;;;;;;;2.30;1.80;;;;;;;;;;5116123;28;20521;-67
2021/05/22 11:08:07;;;;;;;2.60;2.00;;;;;;;;;;5116387;28;20032;-66
2021/05/22 11:10:43;;;;;;;2.03;1.70;;;;;;;;;;5116090;28;20016;-67
2021/05/22 11:13:29;;;;;;;2.33;1.67;;;;;;;;;;5116141;28;20050;-67
2021/05/22 11:15:57;;;;;;;1.60;1.50;;;;;;;;;;5115645;28;20024;-67
2021/05/22 11:18:27;;;;;;;1.60;1.50;;;;;;;;;;5116135;28;20045;-67
2021/05/22 11:21:09;;;;;;;3.20;1.80;;;;;;;;;;5115849;28;20026;-67
2021/05/22 11:23:53;;;;;;;1.75;1.65;;;;;;;;;;5114531;28;20103;-67
2021/05/22 11:26:39;;;;;;;1.88;1.77;;;;;;;;;;5095506;28;20047;-67
2021/05/22 11:29:06;;;;;;;1.60;1.50;;;;;;;;;;5095244;28;20488;-66
2021/05/22 11:31:32;;;;;;;3.30;1.70;;;;;;;;;;5095610;28;20024;-67
2021/05/22 11:34:19;;;;;;;3.15;1.80;;;;;;;;;;5101934;28;20106;-67
2021/05/22 11:37:04;;;;;;;2.08;1.58;;;;;;;;;;5088729;28;20465;-67
2021/05/22 11:39:40;;;;;;;2.85;1.77;;;;;;;;;;5112241;28;20502;-66
2021/05/22 11:42:25;;;;;;;1.90;1.70;;;;;;;;;;5112439;28;20055;-67
2021/05/22 11:44:54;;;;;;;3.15;1.85;;;;;;;;;;5109106;28;20036;-68
2021/05/22 11:47:21;;;;;;;2.70;1.58;;;;;;;;;;5112101;28;20050;-67
2021/05/22 11:49:47;;;;;;;1.73;1.50;;;;;;;;;;5094978;28;20063;-66
2021/05/22 11:52:32;;;;;;;2.00;1.55;;;;;;;;;;5109906;28;20016;-68
2021/05/22 11:54:59;;;;;;;1.65;1.55;;;;;;;;;;5103100;28;20016;-66
2021/05/22 11:57:25;;;;;;;1.77;1.48;;;;;;;;;;5112732;28;20072;-67
2021/05/22 11:59:51;;;;;;;2.05;1.70;;;;;;;;;;5096421;28;20099;-66
2021/05/22 12:02:37;;;;;;;3.05;1.60;;;;;;;;;;5096298;28;20024;-66
2021/05/22 12:05:04;;;;;;;1.70;1.60;;;;;;;;;;5094774;28;20050;-68
2021/05/22 12:07:46;;;;;;;1.65;1.55;;;;;;;;;;5097071;28;20830;-68
2021/05/22 12:10:12;;;;;;;2.60;1.60;;;;;;;;;;5104846;28;20069;-67
2021/05/22 12:12:38;;;;;;;2.60;1.73;;;;;;;;;;5098563;28;20103;-67
2021/05/22 12:15:04;;;;;;;1.52;1.20;;;;;;;;;;5094527;28;20024;-67
2021/05/22 12:17:31;;;;;;;3.15;2.60;;;;;;;;;;5100672;28;20031;-67
2021/05/22 12:19:57;;;;;;;2.92;2.42;;;;;;;;;;5113032;28;20039;-68
2021/05/22 12:22:31;;;;;;;3.15;2.17;;;;;;;;;;5113663;28;20031;-67
2021/05/22 12:24:58;;;;;;;3.08;2.13;;;;;;;;;;5107571;28;20486;-66
2021/05/22 12:27:24;;;;;;;4.53;3.08;;;;;;;;;;5114832;28;20363;-68
2021/05/22 12:29:54;;;;;;;6.85;3.45;;;;;;;;;;5112618;28;20386;-67
2021/05/22 12:32:21;;;;;;;6.00;2.50;;;;;;;;;;5114624;28;20019;-67
2021/05/22 12:34:55;;;;;;;4.50;2.95;;;;;;;;;;5112822;28;20023;-66
2021/05/22 12:37:22;;;;;;;2.65;2.05;;;;;;;;;;5111512;28;20042;-67
2021/05/22 12:39:49;;;;;;;3.90;2.25;;;;;;;;;;5113499;28;20034;-68
2021/05/22 12:42:18;;;;;;;2.97;1.80;;;;;;;;;;5097633;28;20024;-67
2021/05/22 12:44:45;;;;;;;2.45;1.70;;;;;;;;;;5098015;28;20478;-67
2021/05/22 12:47:13;;;;;;;2.17;1.80;;;;;;;;;;5114170;28;20119;-68
2021/05/22 12:49:39;;;;;;;3.30;2.20;;;;;;;;;;5112707;28;20053;-67
2021/05/22 12:52:13;;;;;;;3.72;1.83;;;;;;;;;;5113406;28;20023;-67
2021/05/22 12:54:39;;;;;;;1.60;1.50;;;;;;;;;;5105623;28;20077;-67
2021/05/22 12:57:12;;;;;;;2.38;1.80;;;;;;;;;;5093794;28;20049;-67
2021/05/22 12:59:42;;;;;;;4.90;3.05;;;;;;;;;;5081096;28;20031;-66
2021/05/22 13:02:20;;;;;;;2.72;1.70;;;;;;;;;;5110054;28;20028;-66
2021/05/22 13:04:51;;;;;;;1.90;1.75;;;;;;;;;;5111639;28;20436;-67
2021/05/22 13:07:20;;;;;;;3.40;1.80;;;;;;;;;;5113294;28;20028;-67
2021/05/22 13:10:07;;;;;;;2.10;1.70;;;;;;;;;;5113907;28;20046;-67
2021/05/22 13:12:34;;;;;;;1.75;1.65;;;;;;;;;;5114077;28;20382;-68
2021/05/22 13:15:01;;;;;;;1.40;1.30;;;;;;;;;;5113568;28;20091;-67
2021/05/22 13:17:47;;;;;;;1.50;1.40;;;;;;;;;;5113700;28;20031;-68
2021/05/22 13:20:37;;;;;;;2.78;1.60;;;;;;;;;;5113638;28;20042;-67
2021/05/22 13:23:07;;;;;;;1.52;1.42;;;;;;;;;;5100538;28;20539;-67
2021/05/22 13:25:34;;;;;;;1.65;1.55;;;;;;;;;;5113669;28;20031;-66
2021/05/22 13:28:05;;;;;;;1.70;1.50;;;;;;;;;;5113279;28;20027;-66
2021/05/22 13:30:34;;;;;;;2.80;1.70;;;;;;;;;;5111850;28;20030;-67
2021/05/22 13:33:01;;;;;;;2.80;2.20;;;;;;;;;;5111067;28;20027;-67
2021/05/22 13:35:28;;;;;;;2.47;2.13;;;;;;;;;;5098982;28;20039;-68
2021/05/22 13:37:55;;;;;;;2.67;1.80;;;;;;;;;;5092991;28;20054;-67
2021/05/22 13:40:25;;;;;;;3.47;2.00;;;;;;;;;;5092903;28;20034;-68
2021/05/22 13:42:51;;;;;;;4.45;1.95;;;;;;;;;;5092729;28;20035;-68
2021/05/22 13:45:17;;;;;;;2.10;1.70;;;;;;;;;;5092890;28;20486;-68
2021/05/22 13:47:43;;;;;;;2.15;1.77;;;;;;;;;;5092680;28;20505;-68
2021/05/22 13:50:10;;;;;;;1.88;1.65;;;;;;;;;;5092756;28;20103;-67
2021/05/22 13:52:36;;;;;;;1.95;1.50;;;;;;;;;;5092650;28;20554;-67
2021/05/22 13:55:04;;;;;;;2.42;2.10;;;;;;;;;;5092903;28;20462;-68
2021/05/22 13:57:30;;;;;;;1.67;1.58;;;;;;;;;;5092445;28;20024;-68
2021/05/22 13:59:56;;;;;;;1.70;1.60;;;;;;;;;;5092565;28;20016;-69
2021/05/22 14:02:22;;;;;;;2.00;1.70;;;;;;;;;;5092576;28;20095;-67
2021/05/22 14:04:48;;;;;;;7.00;4.78;;;;;;;;;;5092247;28;20016;-67
2021/05/22 14:07:14;;;;;;;2.58;1.90;;;;;;;;;;5091939;28;20118;-67
2021/05/22 14:09:40;;;;;;;3.45;2.30;;;;;;;;;;5074363;28;20035;-67
2021/05/22 14:12:07;;;;;;;3.00;2.53;;;;;;;;;;5092375;28;20030;-67
2021/05/22 14:14:33;;;;;;;1.90;1.70;;;;;;;;;;5092484;28;20020;-68
2021/05/22 14:16:59;;;;;;;2.40;2.00;;;;;;;;;;5092361;28;20386;-68
2021/05/22 14:19:25;;;;;;;2.17;1.60;;;;;;;;;;5092444;28;20023;-67
2021/05/22 14:21:51;;;;;;;1.75;1.65;;;;;;;;;;5096470;28;20017;-67
2021/05/22 14:24:17;;;;;;;1.60;1.50;;;;;;;;;;5126183;28;20019;-68
2021/05/22 14:26:44;;;;;;;1.75;1.50;;;;;;;;;;5112689;28;20023;-67
2021/05/22 14:29:10;;;;;;;1.80;1.70;;;;;;;;;;5112545;28;20020;-67
2021/05/22 14:31:36;;;;;;;1.40;1.30;;;;;;;;;;5112539;28;20103;-67
2021/05/22 14:34:03;;;;;;;2.08;1.30;;;;;;;;;;5112655;28;20024;-68
2021/05/22 14:36:29;;;;;;;1.52;1.38;;;;;;;;;;5112138;28;20027;-69
2021/05/22 14:38:55;;;;;;;1.50;1.40;;;;;;;;;;5112658;28;20026;-68
2021/05/22 14:41:21;;;;;;;1.50;1.40;;;;;;;;;;5112787;28;20050;-67
2021/05/22 14:43:47;;;;;;;1.42;1.33;;;;;;;;;;5112477;28;20031;-67
2021/05/22 14:46:13;;;;;;;1.27;1.17;;;;;;;;;;5112533;28;20020;-66
2021/05/22 14:48:43;;;;;;;1.52;1.20;;;;;;;;;;5112697;28;20032;-68
2021/05/22 14:51:09;;;;;;;1.60;1.50;;;;;;;;;;5112267;28;20077;-67